createdAt,value
2022-08-28T00:00:46.674Z,98.14
2022-08-28T00:01:55.854Z,99.12
2022-08-28T00:03:05.028Z,100.09
2022-08-28T00:04:13.220Z,97.9
2022-08-28T00:05:21.411Z,96.92
2022-08-28T00:06:30.576Z,98.38
2022-08-28T00:07:39.757Z,99.6
2022-08-28T00:08:48.918Z,98.63
2022-08-28T00:09:58.096Z,99.6
2022-08-28T00:11:07.269Z,97.16
2022-08-28T00:12:16.440Z,96.67
2022-08-28T00:13:25.615Z,94.48
2022-08-28T00:14:34.791Z,96.43
2022-08-28T00:15:43.952Z,96.92
2022-08-28T00:16:53.124Z,94.97
2022-08-28T00:18:02.307Z,93.75
2022-08-28T00:19:11.490Z,93.75
2022-08-28T00:20:19.673Z,93.75
2022-08-28T00:21:28.843Z,93.75
2022-08-28T00:22:38.040Z,91.55
2022-08-28T00:23:47.188Z,89.59
2022-08-28T00:24:55.370Z,93.75
2022-08-28T00:26:03.562Z,92.28
2022-08-28T00:27:12.748Z,90.33
2022-08-28T00:28:21.905Z,89.59
2022-08-28T00:29:31.080Z,88.37
2022-08-28T00:30:40.265Z,89.11
2022-08-28T00:31:49.445Z,91.06
2022-08-28T00:32:58.596Z,88.62
2022-08-28T00:34:07.779Z,88.13
2022-08-28T00:35:16.962Z,87.64
2022-08-28T00:36:26.118Z,92.04
2022-08-28T00:37:35.293Z,86.91
2022-08-28T00:38:44.465Z,87.64
2022-08-28T00:39:53.634Z,86.91
2022-08-28T00:41:01.826Z,86.18
2022-08-28T00:42:11.010Z,86.91
2022-08-28T00:43:20.168Z,87.4
2022-08-28T00:44:29.339Z,86.91
2022-08-28T00:45:38.527Z,86.18
2022-08-28T00:46:47.693Z,88.37
2022-08-28T00:47:56.865Z,86.91
2022-08-28T00:49:05.058Z,87.64
2022-08-28T00:50:13.251Z,84.71
2022-08-28T00:51:22.418Z,86.42
2022-08-28T00:52:31.595Z,84.71
2022-08-28T00:53:40.762Z,85.44
2022-08-28T00:54:49.947Z,84.22
2022-08-28T00:58:17.470Z,84.71
2022-08-28T00:59:25.647Z,85.2
2022-08-28T01:00:33.844Z,85.69
2022-08-28T01:01:43.004Z,86.91
2022-08-28T01:04:01.351Z,84.71
2022-08-28T01:05:10.522Z,84.22
2022-08-28T01:06:19.699Z,86.91
2022-08-28T01:07:28.880Z,85.93
2022-08-28T01:08:38.036Z,85.2
2022-08-28T01:09:47.220Z,87.15
2022-08-28T01:10:56.403Z,87.64
2022-08-28T01:12:05.571Z,88.13
2022-08-28T01:13:14.734Z,87.4
2022-08-28T01:14:23.908Z,87.64
2022-08-28T01:15:33.069Z,90.08
2022-08-28T01:16:41.271Z,88.62
2022-08-28T01:17:50.445Z,88.62
2022-08-28T01:18:59.608Z,89.11
2022-08-28T01:20:08.788Z,90.08
2022-08-28T01:21:17.959Z,92.52
2022-08-28T01:22:27.122Z,93.26
2022-08-28T01:23:36.295Z,95.45
2022-08-28T01:24:45.474Z,93.5
2022-08-28T01:25:54.651Z,94.97
2022-08-28T01:27:03.825Z,93.5
2022-08-28T01:28:12.997Z,93.75
2022-08-28T01:29:22.163Z,94.23
2022-08-28T01:30:31.335Z,93.26
2022-08-28T01:32:48.692Z,96.43
2022-08-28T01:33:57.871Z,96.19
2022-08-28T01:35:07.043Z,98.63
2022-08-28T01:36:16.215Z,96.19
2022-08-28T01:37:25.381Z,97.16
2022-08-28T01:38:34.553Z,97.9
2022-08-28T01:39:43.718Z,96.67
2022-08-28T01:40:52.906Z,97.9
2022-08-28T01:42:02.076Z,96.43
2022-08-28T01:43:11.262Z,98.63
2022-08-28T01:44:20.429Z,96.43
2022-08-28T01:45:29.604Z,100.09
2022-08-28T01:46:37.769Z,99.36
2022-08-28T01:47:46.946Z,99.36
2022-08-28T01:48:56.139Z,97.16
2022-08-28T01:50:05.297Z,96.92
2022-08-28T01:51:14.468Z,97.9
2022-08-28T01:52:23.640Z,98.38
2022-08-28T01:53:32.819Z,96.92
2022-08-28T01:54:41.988Z,97.16
2022-08-28T01:55:51.156Z,96.43
2022-08-28T01:57:00.341Z,95.7
2022-08-28T01:58:09.503Z,92.77
2022-08-28T01:59:18.684Z,89.84
2022-08-28T02:00:27.851Z,91.06
2022-08-28T02:01:36.049Z,90.08
2022-08-28T02:02:45.211Z,91.3
2022-08-28T02:03:54.395Z,89.84
2022-08-28T02:05:03.562Z,90.08
2022-08-28T02:06:12.723Z,90.82
2022-08-28T02:07:21.903Z,91.55
2022-08-28T02:08:31.077Z,89.59
2022-08-28T02:09:40.247Z,89.59
2022-08-28T02:10:49.419Z,90.08
2022-08-28T02:11:58.600Z,89.59
2022-08-28T02:13:07.780Z,90.33
2022-08-28T02:14:16.939Z,90.08
2022-08-28T02:15:26.137Z,89.59
2022-08-28T02:16:34.305Z,87.64
2022-08-28T02:17:43.481Z,85.93
2022-08-28T02:18:52.649Z,86.18
2022-08-28T02:20:01.818Z,85.93
2022-08-28T02:21:10.984Z,84.96
2022-08-28T02:22:19.189Z,85.69
2022-08-28T02:23:28.364Z,84.47
2022-08-28T02:24:36.542Z,84.71
2022-08-28T02:25:45.712Z,84.71
2022-08-28T02:26:54.891Z,83.98
2022-08-28T02:28:04.057Z,84.47
2022-08-28T02:29:13.229Z,84.96
2022-08-28T02:30:22.416Z,85.2
2022-08-28T02:31:31.583Z,84.71
2022-08-28T02:32:40.754Z,83.98
2022-08-28T02:33:49.927Z,83
2022-08-28T02:34:59.098Z,83.25
2022-08-28T02:36:08.278Z,82.51
2022-08-28T02:37:17.452Z,83
2022-08-28T02:38:26.616Z,82.51
2022-08-28T02:39:34.817Z,84.47
2022-08-28T02:41:52.172Z,83
2022-08-28T02:43:00.360Z,83.25
2022-08-28T02:44:09.535Z,82.76
2022-08-28T02:45:18.714Z,85.44
2022-08-28T02:46:27.886Z,83.25
2022-08-28T02:47:37.054Z,84.22
2022-08-28T02:48:46.225Z,84.22
2022-08-28T02:49:55.395Z,83.25
2022-08-28T02:51:04.590Z,84.22
2022-08-28T02:52:13.747Z,84.22
2022-08-28T02:53:22.920Z,83.74
2022-08-28T02:54:32.099Z,83.25
2022-08-28T02:55:41.279Z,83.74
2022-08-28T02:56:50.435Z,84.47
2022-08-28T02:57:58.625Z,82.76
2022-08-28T02:59:07.799Z,82.27
2022-08-28T03:00:16.987Z,84.71
2022-08-28T03:01:26.153Z,84.47
2022-08-28T03:02:35.306Z,84.22
2022-08-28T03:03:44.493Z,82.76
2022-08-28T03:04:53.649Z,84.47
2022-08-28T03:06:02.835Z,84.71
2022-08-28T03:07:12.002Z,83.25
2022-08-28T03:08:21.164Z,83.25
2022-08-28T03:09:30.349Z,83.74
2022-08-28T03:10:39.513Z,83.74
2022-08-28T03:11:48.695Z,84.71
2022-08-28T03:12:56.871Z,82.27
2022-08-28T03:14:06.053Z,83.74
2022-08-28T03:15:15.217Z,84.47
2022-08-28T03:16:24.398Z,83.74
2022-08-28T03:17:33.581Z,82.76
2022-08-28T03:18:42.733Z,84.71
2022-08-28T03:19:51.917Z,85.2
2022-08-28T03:21:01.091Z,85.44
2022-08-28T03:22:10.265Z,85.2
2022-08-28T03:23:19.426Z,86.66
2022-08-28T03:24:28.608Z,86.18
2022-08-28T03:25:37.774Z,88.37
2022-08-28T03:26:46.939Z,89.84
2022-08-28T03:27:55.140Z,89.35
2022-08-28T03:29:04.308Z,90.08
2022-08-28T03:30:13.485Z,94.72
2022-08-28T03:31:22.656Z,96.19
2022-08-28T03:32:31.822Z,96.19
2022-08-28T03:33:41.006Z,98.38
2022-08-28T03:34:49.182Z,98.63
2022-08-28T03:35:57.381Z,96.19
2022-08-28T03:37:06.541Z,97.9
2022-08-28T03:39:24.888Z,98.63
2022-08-28T03:40:34.068Z,100.34
2022-08-28T03:41:43.248Z,96.92
2022-08-28T03:42:52.416Z,98.63
2022-08-28T03:44:01.586Z,96.92
2022-08-28T03:45:10.761Z,96.92
2022-08-28T03:46:19.929Z,97.9
2022-08-28T03:47:29.100Z,98.63
2022-08-28T03:48:37.292Z,99.36
2022-08-28T03:49:45.500Z,100.58
2022-08-28T03:50:54.651Z,97.41
2022-08-28T03:52:03.837Z,94.72
2022-08-28T03:53:13.019Z,93.5
2022-08-28T03:54:22.168Z,94.48
2022-08-28T03:55:31.340Z,95.7
2022-08-28T03:56:40.523Z,96.92
2022-08-28T03:57:49.702Z,96.19
2022-08-28T03:58:58.863Z,96.43
2022-08-28T04:00:08.037Z,95.7
2022-08-28T04:01:17.216Z,95.94
2022-08-28T04:02:26.385Z,95.94
2022-08-28T04:03:35.557Z,94.72
2022-08-28T04:04:43.746Z,93.01
2022-08-28T04:05:52.922Z,91.79
2022-08-28T04:07:02.095Z,91.3
2022-08-28T04:08:11.265Z,90.57
2022-08-28T04:09:20.439Z,91.55
2022-08-28T04:10:29.611Z,89.84
2022-08-28T04:11:38.775Z,88.13
2022-08-28T04:12:47.952Z,86.42
2022-08-28T04:13:57.121Z,85.44
2022-08-28T04:15:06.292Z,84.22
2022-08-28T04:16:15.468Z,85.44
2022-08-28T04:17:24.649Z,84.47
2022-08-28T04:18:33.812Z,85.44
2022-08-28T04:19:42.000Z,84.71
2022-08-28T04:20:51.177Z,83.98
2022-08-28T04:22:00.360Z,84.47
2022-08-28T04:23:09.532Z,84.71
2022-08-28T04:24:18.693Z,85.44
2022-08-28T04:25:27.862Z,84.47
2022-08-28T04:26:37.042Z,84.47
2022-08-28T04:28:55.398Z,84.47
2022-08-28T04:30:04.572Z,83.74
2022-08-28T04:31:13.731Z,83.98
2022-08-28T04:32:22.894Z,83
2022-08-28T04:33:32.083Z,81.05
2022-08-28T04:34:40.263Z,80.07
2022-08-28T04:35:49.438Z,79.34
2022-08-28T04:36:58.616Z,79.1
2022-08-28T04:38:07.786Z,77.14
2022-08-28T04:39:16.956Z,77.63
2022-08-28T04:40:26.126Z,76.66
2022-08-28T04:41:35.309Z,76.41
2022-08-28T04:42:44.479Z,76.66
2022-08-28T04:43:53.650Z,77.39
2022-08-28T04:45:02.832Z,76.9
2022-08-28T04:46:11.998Z,78.12
2022-08-28T04:47:21.160Z,80.07
2022-08-28T04:48:30.326Z,79.83
2022-08-28T04:49:38.529Z,79.58
2022-08-28T04:50:47.708Z,79.83
2022-08-28T04:51:56.886Z,84.47
2022-08-28T04:53:06.049Z,79.1
2022-08-28T04:54:15.226Z,77.39
2022-08-28T04:55:24.405Z,78.61
2022-08-28T04:56:33.560Z,76.9
2022-08-28T04:57:42.739Z,78.36
2022-08-28T04:58:51.907Z,77.88
2022-08-28T05:00:01.082Z,77.39
2022-08-28T05:01:10.260Z,76.17
2022-08-28T05:02:19.427Z,77.63
2022-08-28T05:03:28.608Z,77.14
2022-08-28T05:04:36.799Z,76.41
2022-08-28T05:05:45.970Z,76.9
2022-08-28T05:06:55.151Z,77.14
2022-08-28T05:08:04.312Z,77.39
2022-08-28T05:09:13.480Z,81.78
2022-08-28T05:10:22.668Z,77.39
2022-08-28T05:11:31.834Z,76.17
2022-08-28T05:12:41.004Z,77.14
2022-08-28T05:13:50.184Z,78.36
2022-08-28T05:14:59.353Z,77.39
2022-08-28T05:16:08.522Z,77.39
2022-08-28T05:17:17.690Z,77.39
2022-08-28T05:18:26.868Z,77.88
2022-08-28T05:19:35.066Z,78.36
2022-08-28T05:20:44.219Z,78.12
2022-08-28T05:21:53.412Z,80.07
2022-08-28T05:23:02.566Z,80.56
2022-08-28T05:24:11.766Z,82.27
2022-08-28T05:25:20.925Z,81.05
2022-08-28T05:26:30.089Z,81.29
2022-08-28T05:27:39.271Z,79.83
2022-08-28T05:28:48.441Z,79.83
2022-08-28T05:29:57.615Z,79.58
2022-08-28T05:31:06.785Z,81.29
2022-08-28T05:32:15.964Z,81.29
2022-08-28T05:33:25.142Z,80.32
2022-08-28T05:34:33.320Z,81.54
2022-08-28T05:35:42.488Z,82.51
2022-08-28T05:36:51.660Z,82.76
2022-08-28T05:38:00.822Z,83.98
2022-08-28T05:39:09.994Z,84.71
2022-08-28T05:40:19.172Z,89.59
2022-08-28T05:41:28.360Z,94.72
2022-08-28T05:42:37.530Z,96.92
2022-08-28T05:43:46.689Z,93.01
2022-08-28T05:44:55.871Z,93.5
2022-08-28T05:46:05.046Z,94.72
2022-08-28T05:47:14.207Z,93.99
2022-08-28T05:48:23.383Z,95.21
2022-08-28T05:49:31.576Z,93.99
2022-08-28T05:50:40.775Z,97.16
2022-08-28T05:51:49.925Z,97.41
2022-08-28T05:52:59.090Z,95.7
2022-08-28T05:54:08.256Z,94.48
2022-08-28T05:55:17.425Z,95.7
2022-08-28T05:56:26.610Z,95.94
2022-08-28T05:57:35.781Z,95.94
2022-08-28T05:58:44.954Z,95.21
2022-08-28T05:59:54.134Z,100.34
2022-08-28T06:01:03.299Z,96.92
2022-08-28T06:02:12.477Z,98.14
2022-08-28T06:03:21.641Z,96.43
2022-08-28T06:04:29.846Z,96.92
2022-08-28T06:05:39.015Z,98.14
2022-08-28T06:06:48.184Z,97.9
2022-08-28T06:07:57.354Z,98.87
2022-08-28T06:09:06.515Z,98.87
2022-08-28T06:10:15.694Z,99.6
2022-08-28T06:11:24.868Z,96.67
2022-08-28T06:12:34.043Z,96.92
2022-08-28T06:13:43.230Z,96.67
2022-08-28T06:14:52.386Z,95.21
2022-08-28T06:16:01.556Z,94.97
2022-08-28T06:17:10.734Z,95.45
2022-08-28T06:18:19.902Z,95.21
2022-08-28T06:19:28.096Z,93.26
2022-08-28T06:20:37.271Z,94.23
2022-08-28T06:21:46.433Z,92.28
2022-08-28T06:22:55.624Z,91.55
2022-08-28T06:24:04.812Z,92.52
2022-08-28T06:25:13.954Z,89.59
2022-08-28T06:26:23.144Z,89.11
2022-08-28T06:27:32.311Z,90.08
2022-08-28T06:28:41.476Z,88.13
2022-08-28T06:29:50.656Z,87.64
2022-08-28T06:30:59.815Z,88.62
2022-08-28T06:32:08.992Z,88.86
2022-08-28T06:33:18.170Z,87.89
2022-08-28T06:34:26.369Z,87.64
2022-08-28T06:35:35.529Z,85.69
2022-08-28T06:36:44.696Z,85.93
2022-08-28T06:37:53.875Z,83.25
2022-08-28T06:39:03.053Z,85.69
2022-08-28T06:40:12.219Z,84.96
2022-08-28T06:41:21.386Z,81.78
2022-08-28T06:42:30.563Z,82.27
2022-08-28T06:43:39.726Z,83
2022-08-28T06:44:48.903Z,81.29
2022-08-28T06:45:58.093Z,80.07
2022-08-28T06:47:07.265Z,81.54
2022-08-28T06:48:16.418Z,79.1
2022-08-28T06:49:25.595Z,80.07
2022-08-28T06:51:43.939Z,79.83
2022-08-28T06:52:52.133Z,78.61
2022-08-28T06:54:01.306Z,80.56
2022-08-28T06:55:10.474Z,79.83
2022-08-28T06:56:19.649Z,80.32
2022-08-28T06:57:28.827Z,79.58
2022-08-28T06:58:37.999Z,80.32
2022-08-28T06:59:47.167Z,79.83
2022-08-28T07:00:56.332Z,79.83
2022-08-28T07:02:05.509Z,80.07
2022-08-28T07:03:14.688Z,82.03
2022-08-28T07:04:23.854Z,80.07
2022-08-28T07:05:33.023Z,81.54
2022-08-28T07:06:42.192Z,81.54
2022-08-28T07:07:51.377Z,81.78
2022-08-28T07:08:59.557Z,83.74
2022-08-28T07:10:08.729Z,83
2022-08-28T07:11:17.913Z,81.78
2022-08-28T07:12:27.074Z,82.27
2022-08-28T07:13:36.244Z,83.74
2022-08-28T07:14:45.410Z,85.2
2022-08-28T07:15:54.601Z,86.18
2022-08-28T07:17:03.771Z,88.37
2022-08-28T07:18:12.928Z,93.75
2022-08-28T07:19:22.098Z,88.86
2022-08-28T07:20:31.293Z,90.08
2022-08-28T07:21:40.458Z,91.79
2022-08-28T07:22:49.625Z,94.72
2022-08-28T07:23:57.803Z,94.48
2022-08-28T07:25:06.998Z,92.52
2022-08-28T07:26:16.165Z,92.28
2022-08-28T07:27:25.336Z,93.99
2022-08-28T07:28:34.497Z,94.23
2022-08-28T07:29:43.678Z,94.23
2022-08-28T07:30:52.849Z,94.48
2022-08-28T07:32:02.021Z,94.23
2022-08-28T07:33:11.183Z,95.45
2022-08-28T07:34:20.370Z,96.67
2022-08-28T07:35:29.537Z,94.23
2022-08-28T07:36:38.732Z,94.48
2022-08-28T07:37:47.883Z,97.41
2022-08-28T07:38:56.072Z,96.19
2022-08-28T07:40:05.238Z,97.41
2022-08-28T07:41:14.427Z,93.75
2022-08-28T07:42:23.590Z,95.21
2022-08-28T07:43:32.758Z,99.85
2022-08-28T07:44:41.934Z,95.45
2022-08-28T07:45:51.093Z,95.94
2022-08-28T07:47:00.275Z,95.45
2022-08-28T07:48:09.460Z,96.67
2022-08-28T07:49:18.628Z,95.45
2022-08-28T07:50:27.792Z,96.67
2022-08-28T07:51:36.974Z,95.94
2022-08-28T07:52:46.137Z,96.67
2022-08-28T07:53:54.319Z,97.65
2022-08-28T07:55:03.497Z,96.92
2022-08-28T07:56:12.668Z,97.41
2022-08-28T07:57:21.852Z,96.19
2022-08-28T07:58:31.010Z,95.7
2022-08-28T07:59:40.191Z,98.38
2022-08-28T08:00:49.364Z,97.41
2022-08-28T08:01:58.534Z,96.67
2022-08-28T08:03:07.704Z,97.65
2022-08-28T08:04:16.884Z,96.19
2022-08-28T08:05:26.046Z,96.67
2022-08-28T08:06:35.222Z,98.14
2022-08-28T08:07:44.396Z,98.38
2022-08-28T08:08:52.583Z,97.9
2022-08-28T08:10:01.772Z,96.92
2022-08-28T08:11:10.923Z,99.36
2022-08-28T08:12:20.112Z,96.67
2022-08-28T08:13:29.274Z,97.41
2022-08-28T08:14:38.438Z,99.85
2022-08-28T08:15:47.620Z,101.31
2022-08-28T08:16:56.789Z,101.8
2022-08-28T08:18:05.958Z,105.46
2022-08-28T08:19:15.135Z,104.24
2022-08-28T08:20:24.296Z,103.02
2022-08-28T08:21:33.482Z,102.05
2022-08-28T08:22:42.654Z,99.36
2022-08-28T08:23:50.835Z,99.6
2022-08-28T08:25:00.006Z,100.58
2022-08-28T08:26:09.196Z,99.6
2022-08-28T08:27:18.352Z,99.36
2022-08-28T08:28:27.542Z,98.63
2022-08-28T08:29:36.704Z,99.12
2022-08-28T08:30:45.873Z,97.41
2022-08-28T08:31:55.070Z,98.63
2022-08-28T08:33:04.228Z,98.14
2022-08-28T08:34:13.395Z,97.9
2022-08-28T08:35:22.568Z,98.38
2022-08-28T08:36:31.736Z,107.66
2022-08-28T08:37:40.908Z,106.2
2022-08-28T08:38:49.105Z,98.63
2022-08-28T08:39:58.275Z,99.36
2022-08-28T08:41:07.451Z,99.85
2022-08-28T08:42:16.625Z,98.63
2022-08-28T08:43:25.787Z,97.9
2022-08-28T08:44:34.967Z,97.9
2022-08-28T08:45:44.131Z,97.16
2022-08-28T08:46:53.310Z,99.85
2022-08-28T08:48:02.485Z,106.44
2022-08-28T08:49:11.649Z,99.6
2022-08-28T08:50:20.818Z,98.14
2022-08-28T08:51:29.990Z,98.63
2022-08-28T08:52:39.172Z,105.46
2022-08-28T08:53:47.372Z,95.94
2022-08-28T08:54:56.533Z,96.92
2022-08-28T08:56:05.709Z,94.97
2022-08-28T08:57:14.871Z,103.75
2022-08-28T08:58:24.048Z,98.63
2022-08-28T08:59:33.236Z,95.7
2022-08-28T09:00:42.393Z,96.19
2022-08-28T09:01:51.563Z,99.12
2022-08-28T09:03:00.738Z,95.94
2022-08-28T09:04:09.911Z,97.41
2022-08-28T09:05:19.100Z,99.6
2022-08-28T09:06:28.259Z,97.65
2022-08-28T09:07:37.430Z,98.38
2022-08-28T09:08:46.603Z,97.41
2022-08-28T09:09:54.788Z,99.12
2022-08-28T09:11:03.957Z,97.9
2022-08-28T09:12:13.131Z,100.09
2022-08-28T09:13:22.314Z,100.34
2022-08-28T09:14:31.479Z,103.27
2022-08-28T09:15:40.670Z,102.29
2022-08-28T09:16:49.822Z,102.53
2022-08-28T09:17:58.996Z,103.02
2022-08-28T09:19:08.188Z,104
2022-08-28T09:20:17.347Z,103.02
2022-08-28T09:21:26.517Z,105.71
2022-08-28T09:22:35.694Z,104.73
2022-08-28T09:23:44.882Z,104
2022-08-28T09:24:53.045Z,103.51
2022-08-28T09:26:02.217Z,104.24
2022-08-28T09:27:11.392Z,105.71
2022-08-28T09:28:20.562Z,106.2
2022-08-28T09:29:29.728Z,104
2022-08-28T09:30:38.918Z,103.27
2022-08-28T09:31:48.101Z,104.73
2022-08-28T09:32:57.270Z,106.2
2022-08-28T09:34:06.429Z,105.22
2022-08-28T09:35:15.602Z,104.98
2022-08-28T09:36:24.767Z,103.27
2022-08-28T09:37:33.931Z,102.05
2022-08-28T09:38:43.117Z,103.51
2022-08-28T09:39:51.310Z,107.17
2022-08-28T09:41:00.483Z,104.24
2022-08-28T09:42:09.638Z,105.71
2022-08-28T09:43:18.829Z,102.29
2022-08-28T09:44:27.994Z,108.15
2022-08-28T09:45:37.172Z,102.78
2022-08-28T09:46:46.333Z,104.73
2022-08-28T09:47:55.518Z,103.02
2022-08-28T09:49:04.686Z,100.58
2022-08-28T09:50:13.857Z,99.6
2022-08-28T09:51:23.029Z,99.12
2022-08-28T09:52:32.198Z,97.65
2022-08-28T09:53:41.377Z,96.67
2022-08-28T09:54:49.562Z,97.9
2022-08-28T09:55:58.741Z,96.19
2022-08-28T09:57:07.904Z,95.21
2022-08-28T09:58:17.073Z,95.45
2022-08-28T09:59:26.255Z,92.28
2022-08-28T10:00:35.423Z,93.5
2022-08-28T10:01:44.603Z,94.72
2022-08-28T10:02:53.775Z,92.28
2022-08-28T10:04:02.951Z,93.01
2022-08-28T10:05:12.125Z,94.23
2022-08-28T10:06:21.293Z,93.75
2022-08-28T10:07:30.458Z,93.75
2022-08-28T10:08:39.635Z,94.23
2022-08-28T10:09:47.828Z,94.97
2022-08-28T10:10:57.001Z,94.23
2022-08-28T10:12:06.160Z,96.19
2022-08-28T10:13:15.342Z,95.45
2022-08-28T10:14:24.517Z,100.09
2022-08-28T10:15:33.680Z,97.16
2022-08-28T10:16:42.865Z,96.92
2022-08-28T10:17:52.024Z,98.38
2022-08-28T10:19:01.192Z,98.63
2022-08-28T10:20:10.367Z,98.38
2022-08-28T10:21:19.548Z,97.65
2022-08-28T10:23:37.884Z,99.36
2022-08-28T10:24:46.074Z,100.09
2022-08-28T10:25:54.267Z,102.53
2022-08-28T10:28:12.603Z,100.83
2022-08-28T10:29:21.783Z,101.31
2022-08-28T10:30:30.958Z,102.78
2022-08-28T10:31:40.141Z,100.58
2022-08-28T10:32:49.313Z,102.29
2022-08-28T10:33:58.472Z,99.6
2022-08-28T10:35:07.656Z,99.85
2022-08-28T10:36:16.829Z,100.58
2022-08-28T10:37:25.996Z,98.63
2022-08-28T10:38:34.191Z,100.09
2022-08-28T10:39:42.386Z,99.36
2022-08-28T10:40:51.548Z,101.8
2022-08-28T10:42:00.717Z,102.05
2022-08-28T10:43:08.919Z,98.63
2022-08-28T10:44:17.106Z,99.85
2022-08-28T10:45:26.277Z,100.34
2022-08-28T10:46:35.445Z,101.8
2022-08-28T10:47:44.648Z,101.31
2022-08-28T10:48:53.820Z,97.9
2022-08-28T10:50:02.967Z,99.6
2022-08-28T10:51:12.135Z,99.85
2022-08-28T10:52:21.325Z,103.27
2022-08-28T10:53:30.493Z,103.51
2022-08-28T10:54:39.669Z,100.58
2022-08-28T10:55:48.823Z,99.12
2022-08-28T10:56:58.006Z,100.58
2022-08-28T10:58:07.179Z,98.87
2022-08-28T10:59:15.363Z,99.12
2022-08-28T11:00:24.539Z,100.34
2022-08-28T11:01:33.700Z,100.58
2022-08-28T11:02:42.887Z,99.85
2022-08-28T11:03:52.054Z,100.34
2022-08-28T11:05:01.236Z,100.34
2022-08-28T11:06:10.401Z,99.36
2022-08-28T11:07:19.570Z,101.56
2022-08-28T11:08:28.737Z,99.85
2022-08-28T11:09:37.906Z,101.07
2022-08-28T11:10:47.085Z,99.36
2022-08-28T11:11:56.262Z,98.87
2022-08-28T11:13:05.433Z,104
2022-08-28T11:14:13.627Z,101.07
2022-08-28T11:15:22.784Z,99.36
2022-08-28T11:16:31.967Z,99.12
2022-08-28T11:17:41.141Z,100.09
2022-08-28T11:18:50.328Z,100.09
2022-08-28T11:19:59.480Z,98.63
2022-08-28T11:22:17.833Z,99.36
2022-08-28T11:23:27.008Z,100.58
2022-08-28T11:24:36.193Z,101.8
2022-08-28T11:25:45.354Z,101.31
2022-08-28T11:26:54.520Z,100.58
2022-08-28T11:28:03.689Z,102.53
2022-08-28T11:29:11.884Z,100.09
2022-08-28T11:30:21.065Z,100.09
2022-08-28T11:31:30.224Z,101.8
2022-08-28T11:32:39.394Z,98.63
2022-08-28T11:33:48.567Z,99.85
2022-08-28T11:34:57.746Z,97.9
2022-08-28T11:36:06.915Z,100.34
2022-08-28T11:37:16.085Z,100.58
2022-08-28T11:38:25.264Z,100.09
2022-08-28T11:39:34.430Z,100.58
2022-08-28T11:40:43.598Z,100.83
2022-08-28T11:41:52.781Z,101.07
2022-08-28T11:43:01.953Z,101.07
2022-08-28T11:44:10.142Z,99.6
2022-08-28T11:45:19.319Z,100.34
2022-08-28T11:46:28.478Z,99.12
2022-08-28T11:47:37.649Z,99.36
2022-08-28T11:48:46.833Z,101.07
2022-08-28T11:49:56.005Z,99.12
2022-08-28T11:51:05.161Z,99.6
2022-08-28T11:52:14.353Z,100.83
2022-08-28T11:53:23.508Z,101.07
2022-08-28T11:54:32.699Z,100.83
2022-08-28T11:55:41.866Z,101.07
2022-08-28T11:56:51.041Z,101.8
2022-08-28T11:59:08.390Z,100.34
2022-08-28T12:00:17.566Z,101.07
2022-08-28T12:01:26.746Z,100.83
2022-08-28T12:02:35.916Z,97.9
2022-08-28T12:03:45.089Z,99.6
2022-08-28T12:04:54.257Z,97.16
2022-08-28T12:06:03.462Z,97.41
2022-08-28T12:07:12.599Z,96.92
2022-08-28T12:08:21.769Z,96.92
2022-08-28T12:09:30.956Z,95.45
2022-08-28T12:10:40.124Z,95.94
2022-08-28T12:11:49.295Z,97.16
2022-08-28T12:12:58.468Z,99.6
2022-08-28T12:14:06.650Z,95.7
2022-08-28T12:15:15.831Z,93.01
2022-08-28T12:16:25.011Z,93.26
2022-08-28T12:17:34.174Z,94.48
2022-08-28T12:18:43.352Z,93.75
2022-08-28T12:19:52.524Z,94.97
2022-08-28T12:21:01.694Z,93.26
2022-08-28T12:22:10.861Z,93.26
2022-08-28T12:23:19.055Z,93.75
2022-08-28T12:24:27.255Z,93.26
2022-08-28T12:25:36.420Z,93.01
2022-08-28T12:26:45.592Z,92.77
2022-08-28T12:27:54.772Z,91.06
2022-08-28T12:29:03.952Z,93.01
2022-08-28T12:31:22.293Z,94.23
2022-08-28T12:32:31.454Z,97.9
2022-08-28T12:33:40.622Z,95.21
2022-08-28T12:34:49.801Z,95.7
2022-08-28T12:35:58.966Z,95.94
2022-08-28T12:37:08.153Z,97.41
2022-08-28T12:38:17.313Z,96.19
2022-08-28T12:39:25.504Z,99.36
2022-08-28T12:40:34.672Z,98.63
2022-08-28T12:41:43.854Z,99.6
2022-08-28T12:42:53.019Z,98.38
2022-08-28T12:44:02.200Z,99.6
2022-08-28T12:45:11.358Z,99.36
2022-08-28T12:46:20.544Z,110.59
2022-08-28T12:47:28.733Z,98.63
2022-08-28T12:48:36.919Z,101.07
2022-08-28T12:49:46.090Z,98.63
2022-08-28T12:50:55.271Z,97.9
2022-08-28T12:52:04.445Z,97.16
2022-08-28T12:53:13.614Z,97.41
2022-08-28T12:54:22.785Z,99.12
2022-08-28T12:55:31.962Z,96.67
2022-08-28T12:56:41.145Z,99.36
2022-08-28T12:57:50.316Z,99.85
2022-08-28T12:58:59.471Z,100.34
2022-08-28T13:00:08.658Z,100.09
2022-08-28T13:01:17.824Z,98.63
2022-08-28T13:02:27.005Z,99.6
2022-08-28T13:03:35.174Z,99.6
2022-08-28T13:04:44.358Z,104.49
2022-08-28T13:07:02.698Z,100.09
2022-08-28T13:08:11.884Z,97.41
2022-08-28T13:09:21.060Z,103.27
2022-08-28T13:10:30.212Z,101.31
2022-08-28T13:11:39.384Z,100.34
2022-08-28T13:12:48.564Z,103.75
2022-08-28T13:15:06.915Z,97.65
2022-08-28T13:16:16.090Z,97.65
2022-08-28T13:17:25.251Z,98.87
2022-08-28T13:18:33.448Z,98.63
2022-08-28T13:19:42.624Z,98.14
2022-08-28T13:20:51.796Z,98.14
2022-08-28T13:22:00.959Z,99.36
2022-08-28T13:23:10.130Z,98.87
2022-08-28T13:24:19.301Z,99.6
2022-08-28T13:25:28.481Z,98.63
2022-08-28T13:26:37.653Z,98.38
2022-08-28T13:27:46.831Z,99.6
2022-08-28T13:28:56.001Z,101.31
2022-08-28T13:30:05.159Z,99.85
2022-08-28T13:31:14.342Z,99.36
2022-08-28T13:32:23.517Z,99.12
2022-08-28T13:33:31.705Z,97.16
2022-08-28T13:34:40.877Z,98.14
2022-08-28T13:35:50.053Z,98.87
2022-08-28T13:36:59.219Z,97.16
2022-08-28T13:38:08.387Z,96.92
2022-08-28T13:39:17.565Z,99.12
2022-08-28T13:40:26.745Z,96.19
2022-08-28T13:41:35.920Z,96.67
2022-08-28T13:42:45.092Z,94.48
2022-08-28T13:43:54.264Z,95.7
2022-08-28T13:45:03.433Z,93.75
2022-08-28T13:46:12.590Z,95.7
2022-08-28T13:47:21.774Z,93.75
2022-08-28T13:48:30.938Z,95.21
2022-08-28T13:49:39.142Z,93.5
2022-08-28T13:50:48.305Z,93.01
2022-08-28T13:51:57.469Z,94.48
2022-08-28T13:53:06.651Z,92.28
2022-08-28T13:54:15.832Z,93.99
2022-08-28T13:55:25.003Z,90.82
2022-08-28T13:56:34.177Z,91.79
2022-08-28T13:57:43.342Z,93.5
2022-08-28T13:58:52.512Z,92.28
2022-08-28T14:00:01.714Z,92.28
2022-08-28T14:01:09.881Z,91.06
2022-08-28T14:03:27.238Z,93.26
2022-08-28T14:04:36.412Z,95.94
2022-08-28T14:05:45.594Z,93.01
2022-08-28T14:06:54.761Z,94.97
2022-08-28T14:08:03.945Z,93.01
2022-08-28T14:09:13.110Z,93.75
2022-08-28T14:10:21.311Z,94.48
2022-08-28T14:11:29.490Z,95.7
2022-08-28T14:12:38.667Z,95.45
2022-08-28T14:13:47.829Z,107.42
2022-08-28T14:16:06.186Z,97.41
2022-08-28T14:17:14.376Z,93.75
2022-08-28T14:18:23.549Z,97.65
2022-08-28T14:19:32.718Z,96.92
2022-08-28T14:20:41.886Z,98.87
2022-08-28T14:21:51.058Z,97.16
2022-08-28T14:23:00.241Z,104
2022-08-28T14:24:09.422Z,97.16
2022-08-28T14:25:18.577Z,98.38
2022-08-28T14:26:27.747Z,96.43
2022-08-28T14:27:36.928Z,97.41
2022-08-28T14:28:46.103Z,106.2
2022-08-28T14:29:55.269Z,95.94
2022-08-28T14:31:04.448Z,95.7
2022-08-28T14:32:12.624Z,96.92
2022-08-28T14:33:21.807Z,97.16
2022-08-28T14:34:30.975Z,94.48
2022-08-28T14:35:40.154Z,97.9
2022-08-28T14:36:49.324Z,95.21
2022-08-28T14:37:58.496Z,97.16
2022-08-28T14:39:07.668Z,96.92
2022-08-28T14:40:16.849Z,95.45
2022-08-28T14:41:26.007Z,97.16
2022-08-28T14:42:35.191Z,95.94
2022-08-28T14:43:44.363Z,99.12
2022-08-28T14:44:53.535Z,96.92
2022-08-28T14:46:02.713Z,97.41
2022-08-28T14:47:10.900Z,96.19
2022-08-28T14:48:20.072Z,95.7
2022-08-28T14:49:29.230Z,97.65
2022-08-28T14:50:38.418Z,97.9
2022-08-28T14:51:47.605Z,96.19
2022-08-28T14:52:55.772Z,95.45
2022-08-28T14:54:03.965Z,97.41
2022-08-28T14:55:13.138Z,96.92
2022-08-28T14:56:22.312Z,94.48
2022-08-28T14:57:30.509Z,94.97
2022-08-28T14:58:39.674Z,98.87
2022-08-28T14:59:47.874Z,97.41
2022-08-28T15:00:57.039Z,96.19
2022-08-28T15:02:06.212Z,96.67
2022-08-28T15:03:15.385Z,96.67
2022-08-28T15:04:24.561Z,98.38
2022-08-28T15:05:33.750Z,95.45
2022-08-28T15:06:42.905Z,96.43
2022-08-28T15:07:52.081Z,96.19
2022-08-28T15:09:01.245Z,94.97